Time;durP1;ratioP1;P1;durP2;ratioP2;P2;SDS_P1;SDS_P2;PMS_P1;PMS_P2;Temp;Humidity;BMP_temperature;BMP_pressure;BME280_temperature;BME280_humidity;BME280_pressure;Samples;Min_cycle;Max_cycle;Signal;HPM_P1;HPM_P2
2022/01/22 00:01:48;;;;;;;7.28;5.25;;;;;;;;;;5124274;27;20488;-67
2022/01/22 00:04:16;;;;;;;5.85;4.85;;;;;;;;;;5119707;28;20227;-67
2022/01/22 00:06:43;;;;;;;5.47;4.55;;;;;;;;;;5119726;28;20586;-67
2022/01/22 00:09:11;;;;;;;5.82;4.82;;;;;;;;;;5119767;28;20207;-67
2022/01/22 00:11:50;;;;;;;4.82;4.00;;;;;;;;;;5119842;28;20272;-68
2022/01/22 00:14:26;;;;;;;5.20;4.70;;;;;;;;;;5119754;28;20206;-68
2022/01/22 00:16:55;;;;;;;5.15;3.97;;;;;;;;;;5119764;27;20198;-67
2022/01/22 00:19:22;;;;;;;4.65;4.10;;;;;;;;;;5119374;27;20238;-66
2022/01/22 00:21:50;;;;;;;4.65;4.15;;;;;;;;;;5138092;27;20205;-67
2022/01/22 00:24:17;;;;;;;6.30;4.35;;;;;;;;;;5139537;27;20237;-68
2022/01/22 00:26:46;;;;;;;4.05;3.40;;;;;;;;;;5139723;27;20202;-67
2022/01/22 00:29:14;;;;;;;4.00;3.60;;;;;;;;;;5134693;27;20226;-65
2022/01/22 00:31:41;;;;;;;4.65;3.55;;;;;;;;;;5119275;28;20290;-67
2022/01/22 00:34:09;;;;;;;4.28;3.63;;;;;;;;;;5120182;27;20194;-68
2022/01/22 00:36:37;;;;;;;4.30;3.50;;;;;;;;;;5139039;27;20490;-67
2022/01/22 00:39:05;;;;;;;3.40;2.97;;;;;;;;;;5128052;27;20577;-67
2022/01/22 00:41:32;;;;;;;3.75;2.95;;;;;;;;;;5139691;27;20201;-67
2022/01/22 00:44:01;;;;;;;3.50;3.00;;;;;;;;;;5139407;27;20202;-67
2022/01/22 00:46:29;;;;;;;3.20;2.83;;;;;;;;;;5139979;27;20213;-68
2022/01/22 00:48:56;;;;;;;3.67;2.90;;;;;;;;;;5137566;27;20190;-67
2022/01/22 00:51:24;;;;;;;3.15;2.85;;;;;;;;;;5124156;27;20195;-67
2022/01/22 00:53:51;;;;;;;3.35;2.55;;;;;;;;;;5119137;28;20223;-67
2022/01/22 00:56:19;;;;;;;3.17;2.75;;;;;;;;;;5118998;28;20192;-67
2022/01/22 00:58:47;;;;;;;2.90;2.60;;;;;;;;;;5117656;28;20210;-66
2022/01/22 01:01:16;;;;;;;3.35;2.35;;;;;;;;;;5132177;27;20206;-66
2022/01/22 01:03:43;;;;;;;2.83;2.50;;;;;;;;;;5139530;27;20229;-67
2022/01/22 01:06:10;;;;;;;2.88;2.40;;;;;;;;;;5139606;27;20230;-67
2022/01/22 01:08:38;;;;;;;2.70;2.33;;;;;;;;;;5129131;27;20199;-68
2022/01/22 01:11:06;;;;;;;2.42;2.10;;;;;;;;;;5119678;27;20199;-66
2022/01/22 01:13:40;;;;;;;2.72;2.10;;;;;;;;;;5118442;28;20213;-67
2022/01/22 01:16:19;;;;;;;2.58;2.00;;;;;;;;;;5118919;28;20567;-67
2022/01/22 01:32:42;;;;;;;2.30;2.10;;;;;;;;;;5118613;28;20481;-68
2022/01/22 01:35:11;;;;;;;1.70;1.60;;;;;;;;;;5117662;28;20612;-67
2022/01/22 01:37:38;;;;;;;2.15;1.80;;;;;;;;;;5118290;28;20491;-68
2022/01/22 01:40:08;;;;;;;2.22;1.90;;;;;;;;;;5118376;28;20205;-67
2022/01/22 01:42:43;;;;;;;1.80;1.60;;;;;;;;;;5117997;28;20199;-68
2022/01/22 01:45:11;;;;;;;2.15;1.77;;;;;;;;;;5118034;28;20222;-68
2022/01/22 01:47:41;;;;;;;1.90;1.60;;;;;;;;;;5117557;28;20286;-66
2022/01/22 01:50:10;;;;;;;1.95;1.42;;;;;;;;;;5118595;28;20234;-68
2022/01/22 01:52:44;;;;;;;2.00;1.80;;;;;;;;;;5118321;28;20226;-68
2022/01/22 01:55:15;;;;;;;1.85;1.65;;;;;;;;;;5118010;28;20195;-68
2022/01/22 01:57:43;;;;;;;1.67;1.50;;;;;;;;;;5118364;28;20293;-67
2022/01/22 02:00:16;;;;;;;2.15;1.45;;;;;;;;;;5118765;28;20195;-68
2022/01/22 02:02:44;;;;;;;1.60;1.50;;;;;;;;;;5117532;28;20198;-68
2022/01/22 02:05:13;;;;;;;1.85;1.50;;;;;;;;;;5118077;28;20214;-67
2022/01/22 02:07:42;;;;;;;1.35;1.25;;;;;;;;;;5117866;28;20202;-67
2022/01/22 02:10:13;;;;;;;1.35;1.25;;;;;;;;;;5117612;28;20205;-67
2022/01/22 02:13:27;;;;;;;1.63;1.33;;;;;;;;;;5118147;28;20269;-67
2022/01/22 02:23:54;;;;;;;1.35;1.25;;;;;;;;;;5117882;28;20295;-68
2022/01/22 02:26:21;;;;;;;1.20;1.10;;;;;;;;;;5098531;28;20630;-67
2022/01/22 02:28:51;;;;;;;1.40;1.30;;;;;;;;;;5097791;28;20787;-67
2022/01/22 02:31:26;;;;;;;1.20;1.10;;;;;;;;;;5098458;28;20206;-64
2022/01/22 02:34:01;;;;;;;1.08;0.98;;;;;;;;;;5108508;28;20217;-67
2022/01/22 02:36:34;;;;;;;1.10;0.98;;;;;;;;;;5111056;28;20609;-66
2022/01/22 02:39:08;;;;;;;1.25;1.15;;;;;;;;;;5109946;28;20234;-69
2022/01/22 02:41:37;;;;;;;1.02;0.93;;;;;;;;;;5116448;28;20249;-67
2022/01/22 02:44:05;;;;;;;1.08;0.77;;;;;;;;;;5118045;28;20602;-66
2022/01/22 02:46:37;;;;;;;0.80;0.80;;;;;;;;;;5116823;28;20230;-67
2022/01/22 02:49:05;;;;;;;1.10;1.00;;;;;;;;;;5114044;28;20203;-67
2022/01/22 02:51:33;;;;;;;0.80;0.80;;;;;;;;;;5117104;28;20485;-65
2022/01/22 02:54:01;;;;;;;0.82;0.82;;;;;;;;;;5117873;28;20230;-67
2022/01/22 02:56:28;;;;;;;0.80;0.80;;;;;;;;;;5117115;28;20195;-66
2022/01/22 02:58:58;;;;;;;0.80;0.73;;;;;;;;;;5098096;28;20199;-66
2022/01/22 03:01:26;;;;;;;0.93;0.80;;;;;;;;;;5111277;28;20199;-67
2022/01/22 03:03:53;;;;;;;0.93;0.80;;;;;;;;;;5117014;28;20206;-67
2022/01/22 03:06:20;;;;;;;0.90;0.88;;;;;;;;;;5117360;28;20223;-66
2022/01/22 03:08:49;;;;;;;0.70;0.70;;;;;;;;;;5106015;28;20208;-66
2022/01/22 03:11:19;;;;;;;0.65;0.65;;;;;;;;;;5096777;28;20223;-67
2022/01/22 03:16:51;;;;;;;0.80;0.80;;;;;;;;;;5111514;28;20241;-67
2022/01/22 03:19:32;;;;;;;0.70;0.70;;;;;;;;;;5115153;27;20230;-68
2022/01/22 03:22:13;;;;;;;0.60;0.60;;;;;;;;;;5118731;28;20221;-67
2022/01/22 03:27:29;;;;;;;0.68;0.65;;;;;;;;;;5119462;28;20442;-67
2022/01/22 03:29:56;;;;;;;0.70;0.68;;;;;;;;;;5103090;28;20207;-67
2022/01/22 03:32:26;;;;;;;1.48;0.80;;;;;;;;;;5119353;28;20264;-67
2022/01/22 03:34:59;;;;;;;0.63;0.57;;;;;;;;;;5119362;28;20211;-67
2022/01/22 03:37:27;;;;;;;0.73;0.70;;;;;;;;;;5102611;28;20489;-68
2022/01/22 03:39:56;;;;;;;0.65;0.60;;;;;;;;;;5118492;28;20210;-66
2022/01/22 03:42:23;;;;;;;0.60;0.60;;;;;;;;;;5119897;28;20230;-67
2022/01/22 03:44:51;;;;;;;0.80;0.60;;;;;;;;;;5120375;28;20199;-67
2022/01/22 03:47:18;;;;;;;0.70;0.60;;;;;;;;;;5119232;28;20199;-67
2022/01/22 03:49:45;;;;;;;0.57;0.50;;;;;;;;;;5120502;28;20210;-68
2022/01/22 03:52:13;;;;;;;0.40;0.40;;;;;;;;;;5120548;28;20195;-67
2022/01/22 03:54:41;;;;;;;0.60;0.52;;;;;;;;;;5120409;28;20199;-67
2022/01/22 03:57:10;;;;;;;0.73;0.60;;;;;;;;;;5100182;28;20211;-67
2022/01/22 03:59:37;;;;;;;0.60;0.60;;;;;;;;;;5100010;28;20471;-68
2022/01/22 04:02:38;;;;;;;0.47;0.47;;;;;;;;;;5091880;28;20676;-66
2022/01/22 04:05:03;;;;;;;0.50;0.50;;;;;;;;;;5103235;28;20290;-66
2022/01/22 04:10:13;;;;;;;0.80;0.55;;;;;;;;;;5085026;28;20241;-68
2022/01/22 04:12:49;;;;;;;0.43;0.43;;;;;;;;;;5100104;28;20204;-67
2022/01/22 04:15:20;;;;;;;0.55;0.40;;;;;;;;;;5100296;28;20213;-66
2022/01/22 04:26:09;;;;;;;0.35;0.35;;;;;;;;;;5119607;28;20620;-66
2022/01/22 04:28:37;;;;;;;0.50;0.50;;;;;;;;;;5119911;28;20202;-67
2022/01/22 04:31:05;;;;;;;0.40;0.40;;;;;;;;;;5119799;28;20210;-66
2022/01/22 04:33:32;;;;;;;0.40;0.40;;;;;;;;;;5119469;28;20216;-66
2022/01/22 04:36:00;;;;;;;0.40;0.40;;;;;;;;;;5119847;28;20200;-66
2022/01/22 04:38:27;;;;;;;0.40;0.40;;;;;;;;;;5119583;28;20222;-66
2022/01/22 04:40:55;;;;;;;0.50;0.40;;;;;;;;;;5118859;28;20199;-66
2022/01/22 04:43:22;;;;;;;0.32;0.32;;;;;;;;;;5119839;28;20214;-66
2022/01/22 04:46:05;;;;;;;0.40;0.40;;;;;;;;;;5119305;28;20234;-66
2022/01/22 04:48:48;;;;;;;0.30;0.30;;;;;;;;;;5119951;28;20203;-66
2022/01/22 04:56:46;;;;;;;0.45;0.40;;;;;;;;;;5118735;28;20213;-67
2022/01/22 04:59:14;;;;;;;0.40;0.30;;;;;;;;;;5119187;28;20230;-66
2022/01/22 05:01:43;;;;;;;0.52;0.32;;;;;;;;;;5119089;28;20210;-66
2022/01/22 05:04:10;;;;;;;0.40;0.35;;;;;;;;;;5118566;28;20594;-66
2022/01/22 05:06:37;;;;;;;0.47;0.40;;;;;;;;;;5118351;28;20215;-67
2022/01/22 05:09:05;;;;;;;0.30;0.30;;;;;;;;;;5117983;28;20191;-67
2022/01/22 05:11:32;;;;;;;0.30;0.22;;;;;;;;;;5118352;28;20574;-66
2022/01/22 05:13:59;;;;;;;0.30;0.30;;;;;;;;;;5119438;28;20274;-66
2022/01/22 05:16:27;;;;;;;0.28;0.28;;;;;;;;;;5118829;28;20206;-66
2022/01/22 05:19:00;;;;;;;0.28;0.28;;;;;;;;;;5118056;28;20301;-67
2022/01/22 05:21:30;;;;;;;0.40;0.30;;;;;;;;;;5118637;28;20199;-66
2022/01/22 05:24:01;;;;;;;0.30;0.30;;;;;;;;;;5118712;28;20346;-66
2022/01/22 05:26:51;;;;;;;0.30;0.30;;;;;;;;;;5118431;28;20229;-66
2022/01/22 05:29:43;;;;;;;0.32;0.30;;;;;;;;;;5118768;28;20226;-66
2022/01/22 05:32:31;;;;;;;0.30;0.30;;;;;;;;;;5118438;28;20598;-66
2022/01/22 05:37:44;;;;;;;0.32;0.32;;;;;;;;;;5118230;28;20706;-67
2022/01/22 05:40:12;;;;;;;0.30;0.30;;;;;;;;;;5117952;28;20221;-67
2022/01/22 05:42:39;;;;;;;0.30;0.30;;;;;;;;;;5118358;28;20209;-67
2022/01/22 05:45:07;;;;;;;0.57;0.40;;;;;;;;;;5117755;28;20495;-66
2022/01/22 05:47:35;;;;;;;0.20;0.20;;;;;;;;;;5117746;28;20222;-68
2022/01/22 05:50:08;;;;;;;0.20;0.20;;;;;;;;;;5118314;28;20236;-68
2022/01/22 05:52:43;;;;;;;0.28;0.28;;;;;;;;;;5117831;28;20533;-66
2022/01/22 06:00:49;;;;;;;0.20;0.20;;;;;;;;;;5134542;28;20665;-66
2022/01/22 06:03:50;;;;;;;0.30;0.20;;;;;;;;;;5135352;27;20198;-66
2022/01/22 06:06:19;;;;;;;0.20;0.20;;;;;;;;;;5134463;28;20197;-66
2022/01/22 06:08:51;;;;;;;0.30;0.30;;;;;;;;;;5135660;27;20202;-66
2022/01/22 06:11:24;;;;;;;0.30;0.30;;;;;;;;;;5135190;27;20229;-66
2022/01/22 06:13:53;;;;;;;0.30;0.30;;;;;;;;;;5134852;27;20287;-66
2022/01/22 06:16:21;;;;;;;0.30;0.20;;;;;;;;;;5134686;27;20229;-67
2022/01/22 06:18:49;;;;;;;0.22;0.20;;;;;;;;;;5135452;27;20210;-67
2022/01/22 06:21:16;;;;;;;0.75;0.20;;;;;;;;;;5134319;27;20198;-66
2022/01/22 06:23:45;;;;;;;0.40;0.20;;;;;;;;;;5135120;27;20202;-66
2022/01/22 06:26:13;;;;;;;0.30;0.30;;;;;;;;;;5135240;27;20225;-67
2022/01/22 06:28:41;;;;;;;0.32;0.30;;;;;;;;;;5134280;27;20502;-66
2022/01/22 06:31:09;;;;;;;0.20;0.20;;;;;;;;;;5134479;27;20218;-66
2022/01/22 06:33:37;;;;;;;0.30;0.20;;;;;;;;;;5134865;27;20202;-66
2022/01/22 06:36:05;;;;;;;0.20;0.20;;;;;;;;;;5133968;27;20500;-66
2022/01/22 06:38:33;;;;;;;0.40;0.30;;;;;;;;;;5134417;27;20199;-67
2022/01/22 06:43:45;;;;;;;0.20;0.20;;;;;;;;;;5134576;28;20243;-66
2022/01/22 06:46:14;;;;;;;0.22;0.22;;;;;;;;;;5134366;27;20195;-66
2022/01/22 06:48:42;;;;;;;0.30;0.20;;;;;;;;;;5134578;27;20256;-66
2022/01/22 06:51:09;;;;;;;0.30;0.20;;;;;;;;;;5133701;27;20206;-64
2022/01/22 06:53:40;;;;;;;0.73;0.20;;;;;;;;;;5134180;27;20213;-66
2022/01/22 06:56:09;;;;;;;0.20;0.20;;;;;;;;;;5133866;27;20245;-66
2022/01/22 06:58:36;;;;;;;0.20;0.20;;;;;;;;;;5134054;27;20195;-66
2022/01/22 07:01:05;;;;;;;0.22;0.22;;;;;;;;;;5133605;27;20198;-67
2022/01/22 07:03:34;;;;;;;0.20;0.20;;;;;;;;;;5134125;27;20195;-67
2022/01/22 07:06:02;;;;;;;0.20;0.20;;;;;;;;;;5133471;27;20198;-66
2022/01/22 07:08:29;;;;;;;0.40;0.20;;;;;;;;;;5125960;27;20256;-66
2022/01/22 07:10:57;;;;;;;0.20;0.20;;;;;;;;;;5120098;28;20202;-65
2022/01/22 07:13:24;;;;;;;0.22;0.22;;;;;;;;;;5120662;28;20211;-66
2022/01/22 07:15:52;;;;;;;0.20;0.20;;;;;;;;;;5120020;28;20199;-66
2022/01/22 07:18:19;;;;;;;0.30;0.20;;;;;;;;;;5119689;28;20609;-66
2022/01/22 07:20:50;;;;;;;0.30;0.20;;;;;;;;;;5119917;28;20268;-66
2022/01/22 07:23:21;;;;;;;0.20;0.20;;;;;;;;;;5120563;28;20535;-67
2022/01/22 07:25:48;;;;;;;0.95;0.20;;;;;;;;;;5120032;28;20598;-66
2022/01/22 07:28:17;;;;;;;0.20;0.20;;;;;;;;;;5119913;28;20210;-66
2022/01/22 07:30:46;;;;;;;0.20;0.10;;;;;;;;;;5119518;28;20207;-66
2022/01/22 07:33:14;;;;;;;0.13;0.10;;;;;;;;;;5120301;28;20638;-66
2022/01/22 07:35:41;;;;;;;0.30;0.20;;;;;;;;;;5119516;27;20198;-67
2022/01/22 07:38:10;;;;;;;0.20;0.20;;;;;;;;;;5119788;28;20223;-66
2022/01/22 07:40:38;;;;;;;0.20;0.10;;;;;;;;;;5119309;28;20221;-67
2022/01/22 07:43:06;;;;;;;0.20;0.20;;;;;;;;;;5119424;28;20210;-66
2022/01/22 07:45:33;;;;;;;0.17;0.17;;;;;;;;;;5119182;28;20199;-66
2022/01/22 07:48:01;;;;;;;0.28;0.28;;;;;;;;;;5119153;28;20251;-67
2022/01/22 07:50:28;;;;;;;0.22;0.22;;;;;;;;;;5119455;28;20197;-66
2022/01/22 07:52:58;;;;;;;0.10;0.10;;;;;;;;;;5118630;28;20214;-66
2022/01/22 07:55:27;;;;;;;0.20;0.20;;;;;;;;;;5118788;28;20196;-67
2022/01/22 07:57:54;;;;;;;0.20;0.20;;;;;;;;;;5118921;28;20230;-66
2022/01/22 08:00:22;;;;;;;0.20;0.20;;;;;;;;;;5118919;28;20615;-66
2022/01/22 08:02:50;;;;;;;0.20;0.20;;;;;;;;;;5118547;28;20206;-66
2022/01/22 08:05:17;;;;;;;0.10;0.10;;;;;;;;;;5118844;28;20203;-66
2022/01/22 08:07:45;;;;;;;0.20;0.20;;;;;;;;;;5118967;27;20198;-67
2022/01/22 08:10:13;;;;;;;0.20;0.20;;;;;;;;;;5118521;28;21436;-66
2022/01/22 08:12:43;;;;;;;0.30;0.22;;;;;;;;;;5119003;28;20244;-66
2022/01/22 08:15:11;;;;;;;0.20;0.20;;;;;;;;;;5118673;28;20210;-67
2022/01/22 08:17:39;;;;;;;0.38;0.20;;;;;;;;;;5117284;28;20222;-66
2022/01/22 08:20:07;;;;;;;0.32;0.20;;;;;;;;;;5115566;28;20594;-66
2022/01/22 08:22:35;;;;;;;0.40;0.20;;;;;;;;;;5118384;28;20207;-66
2022/01/22 08:25:02;;;;;;;0.30;0.20;;;;;;;;;;5118373;28;20207;-66
2022/01/22 08:27:40;;;;;;;0.20;0.20;;;;;;;;;;5118330;28;20608;-66
2022/01/22 08:30:12;;;;;;;0.20;0.20;;;;;;;;;;5117980;28;20209;-66
2022/01/22 08:32:58;;;;;;;0.40;0.20;;;;;;;;;;5117360;28;20280;-67
2022/01/22 08:38:10;;;;;;;0.30;0.20;;;;;;;;;;5100234;28;20218;-66
2022/01/22 08:40:37;;;;;;;0.20;0.20;;;;;;;;;;5117496;28;20498;-66
2022/01/22 08:43:05;;;;;;;0.20;0.20;;;;;;;;;;5118071;28;20207;-66
2022/01/22 08:45:34;;;;;;;0.20;0.20;;;;;;;;;;5117574;28;20701;-66
2022/01/22 08:48:01;;;;;;;0.55;0.30;;;;;;;;;;5116965;28;20206;-66
2022/01/22 08:50:29;;;;;;;0.20;0.15;;;;;;;;;;5117512;28;20202;-66
2022/01/22 08:52:56;;;;;;;0.20;0.20;;;;;;;;;;5116993;28;20222;-66
2022/01/22 08:55:24;;;;;;;0.20;0.20;;;;;;;;;;5117384;28;20206;-67
2022/01/22 08:57:51;;;;;;;0.40;0.20;;;;;;;;;;5116816;28;20259;-66
2022/01/22 09:00:19;;;;;;;0.35;0.20;;;;;;;;;;5116887;28;20199;-67
2022/01/22 09:02:49;;;;;;;0.28;0.20;;;;;;;;;;5116598;28;20209;-66
2022/01/22 09:05:17;;;;;;;0.30;0.25;;;;;;;;;;5117798;28;20206;-66
2022/01/22 09:07:44;;;;;;;0.30;0.30;;;;;;;;;;5117940;28;20634;-66
2022/01/22 09:10:12;;;;;;;0.30;0.20;;;;;;;;;;5117384;28;20211;-66
2022/01/22 09:12:39;;;;;;;0.40;0.30;;;;;;;;;;5116979;28;20202;-66
2022/01/22 09:15:07;;;;;;;5.07;0.50;;;;;;;;;;5115927;28;20203;-64
2022/01/22 09:17:35;;;;;;;6.80;0.57;;;;;;;;;;5115072;28;20219;-65
2022/01/22 09:20:09;;;;;;;2.38;0.43;;;;;;;;;;5116001;28;20229;-65
2022/01/22 09:22:36;;;;;;;5.18;0.60;;;;;;;;;;5115897;28;20567;-66
2022/01/22 09:25:04;;;;;;;2.92;0.45;;;;;;;;;;5115361;28;20210;-65
2022/01/22 09:27:31;;;;;;;2.60;0.60;;;;;;;;;;5114380;28;20601;-65
2022/01/22 09:29:58;;;;;;;1.65;0.40;;;;;;;;;;5115227;28;20218;-65
2022/01/22 09:32:26;;;;;;;2.55;0.40;;;;;;;;;;5114386;28;20195;-66
2022/01/22 09:34:53;;;;;;;3.03;0.65;;;;;;;;;;5113887;28;20207;-67
2022/01/22 09:37:22;;;;;;;0.77;0.35;;;;;;;;;;5114536;28;20230;-65
2022/01/22 09:39:49;;;;;;;0.85;0.35;;;;;;;;;;5114735;28;20203;-67
2022/01/22 09:42:17;;;;;;;1.75;0.65;;;;;;;;;;5113536;28;20205;-67
2022/01/22 09:44:44;;;;;;;1.20;0.52;;;;;;;;;;5112973;28;20199;-67
2022/01/22 09:47:12;;;;;;;0.90;0.50;;;;;;;;;;5115713;28;20260;-69
2022/01/22 09:49:39;;;;;;;0.45;0.30;;;;;;;;;;5113739;28;20291;-67
2022/01/22 09:52:07;;;;;;;1.35;0.50;;;;;;;;;;5115171;28;20213;-67
2022/01/22 09:54:35;;;;;;;1.55;0.50;;;;;;;;;;5113925;28;20203;-66
2022/01/22 09:57:04;;;;;;;1.23;0.43;;;;;;;;;;5114945;28;20822;-68
2022/01/22 09:59:32;;;;;;;0.90;0.40;;;;;;;;;;5114761;28;20245;-67
2022/01/22 10:02:09;;;;;;;1.15;0.40;;;;;;;;;;5115534;28;20210;-67
2022/01/22 10:04:37;;;;;;;1.10;0.50;;;;;;;;;;5114852;28;20195;-65
2022/01/22 10:07:04;;;;;;;1.52;0.43;;;;;;;;;;5114541;28;20210;-65
2022/01/22 10:09:46;;;;;;;2.28;0.55;;;;;;;;;;5114466;28;20199;-65
2022/01/22 10:12:17;;;;;;;1.42;0.40;;;;;;;;;;5115105;28;20199;-65
2022/01/22 10:15:03;;;;;;;0.80;0.50;;;;;;;;;;5095676;28;20459;-66
2022/01/22 10:17:40;;;;;;;3.85;1.70;;;;;;;;;;5096960;28;20238;-67
2022/01/22 10:20:27;;;;;;;10.07;5.13;;;;;;;;;;5096169;28;20211;-66
2022/01/22 10:22:55;;;;;;;5.97;3.20;;;;;;;;;;5114690;28;20291;-67
2022/01/22 10:25:24;;;;;;;3.90;3.00;;;;;;;;;;5095713;28;20204;-67
2022/01/22 10:27:57;;;;;;;3.60;2.83;;;;;;;;;;5100134;28;20195;-66
2022/01/22 10:30:34;;;;;;;3.75;2.67;;;;;;;;;;5115814;28;20763;-65
2022/01/22 10:33:05;;;;;;;3.75;2.95;;;;;;;;;;5115730;28;20209;-66
2022/01/22 10:35:33;;;;;;;3.90;2.70;;;;;;;;;;5112342;28;20195;-66
2022/01/22 10:38:01;;;;;;;4.95;2.50;;;;;;;;;;5115396;28;20215;-66
2022/01/22 10:40:30;;;;;;;2.95;2.40;;;;;;;;;;5115036;28;20628;-66
2022/01/22 10:43:20;;;;;;;3.72;2.30;;;;;;;;;;5116436;28;20199;-66
2022/01/22 10:46:06;;;;;;;3.20;2.30;;;;;;;;;;5119923;28;20203;-66
2022/01/22 10:48:34;;;;;;;3.40;2.60;;;;;;;;;;5118646;28;20285;-64
2022/01/22 10:51:02;;;;;;;2.90;2.30;;;;;;;;;;5119658;27;20226;-66
2022/01/22 10:53:41;;;;;;;3.47;2.00;;;;;;;;;;5119260;27;20531;-66
2022/01/22 10:56:10;;;;;;;3.08;2.03;;;;;;;;;;5118761;28;20241;-66
2022/01/22 10:58:49;;;;;;;2.75;1.60;;;;;;;;;;5118369;28;20229;-65
2022/01/22 11:01:17;;;;;;;3.08;1.80;;;;;;;;;;5118421;28;20202;-64
2022/01/22 11:03:44;;;;;;;2.95;2.00;;;;;;;;;;5117022;27;20224;-66
2022/01/22 11:06:25;;;;;;;1.98;1.50;;;;;;;;;;5117747;28;20214;-65
2022/01/22 11:08:53;;;;;;;4.00;1.83;;;;;;;;;;5117754;28;20238;-67
2022/01/22 11:11:21;;;;;;;4.65;1.75;;;;;;;;;;5117363;28;20210;-65
2022/01/22 11:13:50;;;;;;;2.22;1.58;;;;;;;;;;5117707;28;20226;-67
2022/01/22 11:16:18;;;;;;;1.73;1.55;;;;;;;;;;5117126;28;20217;-64
2022/01/22 11:18:48;;;;;;;2.35;1.60;;;;;;;;;;5116353;28;20233;-64
2022/01/22 11:21:16;;;;;;;2.53;1.50;;;;;;;;;;5117514;28;20199;-64
2022/01/22 11:23:44;;;;;;;2.78;1.75;;;;;;;;;;5118682;28;20196;-66
2022/01/22 11:26:11;;;;;;;2.80;1.90;;;;;;;;;;5118876;28;20406;-66
2022/01/22 11:28:39;;;;;;;3.05;1.88;;;;;;;;;;5118531;28;20195;-65
2022/01/22 11:31:10;;;;;;;3.20;1.52;;;;;;;;;;5118380;28;20202;-65
2022/01/22 11:33:40;;;;;;;1.63;1.20;;;;;;;;;;5101475;28;20199;-65
2022/01/22 11:36:11;;;;;;;2.75;1.60;;;;;;;;;;5118274;28;20199;-66
2022/01/22 11:38:39;;;;;;;3.53;1.67;;;;;;;;;;5117768;28;20230;-66
2022/01/22 11:41:08;;;;;;;2.75;1.40;;;;;;;;;;5117735;28;20199;-65
2022/01/22 11:43:59;;;;;;;1.73;1.30;;;;;;;;;;5117970;28;20264;-65
2022/01/22 11:46:31;;;;;;;2.08;1.20;;;;;;;;;;5117492;28;20218;-66
2022/01/22 11:49:10;;;;;;;4.65;1.63;;;;;;;;;;5109996;28;20287;-67
2022/01/22 11:51:37;;;;;;;4.80;1.27;;;;;;;;;;5117599;28;20205;-65
2022/01/22 11:54:05;;;;;;;2.45;1.23;;;;;;;;;;5118122;28;20191;-65
2022/01/22 11:56:32;;;;;;;2.42;1.30;;;;;;;;;;5118921;28;20245;-65
2022/01/22 11:59:18;;;;;;;2.30;1.30;;;;;;;;;;5117746;28;20214;-66
2022/01/22 12:02:03;;;;;;;3.58;1.20;;;;;;;;;;5117494;28;20203;-66
2022/01/22 12:04:46;;;;;;;3.28;1.10;;;;;;;;;;5118470;28;20210;-66
2022/01/22 12:07:17;;;;;;;2.38;1.02;;;;;;;;;;5117475;28;20282;-66
2022/01/22 12:09:52;;;;;;;2.42;1.17;;;;;;;;;;5117576;28;20735;-65
2022/01/22 12:15:13;;;;;;;1.83;1.00;;;;;;;;;;5117311;28;20190;-65
2022/01/22 12:18:10;;;;;;;3.08;1.13;;;;;;;;;;5100787;28;20230;-66
2022/01/22 12:21:30;;;;;;;1.52;1.00;;;;;;;;;;5117644;28;20582;-65
2022/01/22 12:23:49;;;;;;;3.50;1.08;;;;;;;;;;5117745;28;20838;-65
2022/01/22 12:26:17;;;;;;;9.10;5.28;;;;;;;;;;5117022;28;20211;-65
2022/01/22 12:28:45;;;;;;;66.88;51.60;;;;;;;;;;5117506;27;20195;-65
2022/01/22 12:31:15;;;;;;;45.60;34.83;;;;;;;;;;5116426;28;20191;-67
2022/01/22 12:33:47;;;;;;;41.53;29.75;;;;;;;;;;5116001;28;20195;-63
2022/01/22 12:36:20;;;;;;;53.97;34.15;;;;;;;;;;5116744;28;20194;-64
2022/01/22 12:39:01;;;;;;;46.15;31.75;;;;;;;;;;5116569;28;20215;-65
2022/01/22 12:41:32;;;;;;;43.03;29.08;;;;;;;;;;5117028;28;20230;-64
2022/01/22 12:44:10;;;;;;;44.95;29.63;;;;;;;;;;5116496;28;20201;-64
2022/01/22 12:46:38;;;;;;;40.00;26.90;;;;;;;;;;5116140;28;20222;-64
2022/01/22 12:49:08;;;;;;;36.28;26.30;;;;;;;;;;5116516;28;20196;-65
2022/01/22 12:51:36;;;;;;;34.78;24.58;;;;;;;;;;5116422;28;20523;-64
2022/01/22 12:54:04;;;;;;;34.63;24.10;;;;;;;;;;5116686;28;20203;-64
2022/01/22 12:56:51;;;;;;;32.90;22.92;;;;;;;;;;5116492;28;20239;-65
2022/01/22 12:59:19;;;;;;;29.27;21.10;;;;;;;;;;5115600;28;20227;-62
2022/01/22 13:01:51;;;;;;;29.38;20.30;;;;;;;;;;5115703;27;20473;-61
2022/01/22 13:04:22;;;;;;;29.60;21.08;;;;;;;;;;5115689;28;20195;-65
2022/01/22 13:06:52;;;;;;;29.10;19.13;;;;;;;;;;5116283;28;20202;-65
2022/01/22 13:09:20;;;;;;;25.60;17.95;;;;;;;;;;5115713;28;20275;-64
2022/01/22 13:11:49;;;;;;;26.52;17.00;;;;;;;;;;5116513;28;20210;-64
2022/01/22 13:14:17;;;;;;;24.40;16.17;;;;;;;;;;5116606;28;20460;-64
2022/01/22 13:16:48;;;;;;;22.88;16.42;;;;;;;;;;5115735;28;20226;-64
2022/01/22 13:19:16;;;;;;;22.75;16.25;;;;;;;;;;5114329;28;20223;-64
2022/01/22 13:21:51;;;;;;;21.73;15.18;;;;;;;;;;5114526;28;20597;-64
2022/01/22 13:24:19;;;;;;;21.25;14.98;;;;;;;;;;5114794;28;20199;-65
2022/01/22 13:26:52;;;;;;;19.63;14.13;;;;;;;;;;5115116;28;20244;-64
2022/01/22 13:29:21;;;;;;;17.27;13.30;;;;;;;;;;5099388;28;20206;-64
2022/01/22 13:32:19;;;;;;;17.55;13.13;;;;;;;;;;5116050;28;20276;-63
2022/01/22 13:35:00;;;;;;;17.77;12.45;;;;;;;;;;5091398;28;20663;-63
2022/01/22 13:40:42;;;;;;;16.73;11.95;;;;;;;;;;5093399;28;20595;-63
2022/01/22 13:48:50;;;;;;;15.63;10.57;;;;;;;;;;5115421;28;20239;-63
2022/01/22 13:51:18;;;;;;;13.60;9.90;;;;;;;;;;5115393;28;20494;-63
2022/01/22 13:53:48;;;;;;;12.63;9.73;;;;;;;;;;5115166;28;20194;-63
2022/01/22 13:56:17;;;;;;;11.93;8.77;;;;;;;;;;5115560;28;20238;-63
2022/01/22 13:58:44;;;;;;;13.65;9.65;;;;;;;;;;5114791;28;20227;-63
2022/01/22 14:01:30;;;;;;;14.90;9.50;;;;;;;;;;5115666;28;20198;-64
2022/01/22 14:04:07;;;;;;;12.00;8.85;;;;;;;;;;5115289;28;20222;-63
2022/01/22 14:06:34;;;;;;;10.50;7.95;;;;;;;;;;5114749;28;20194;-63
2022/01/22 14:09:14;;;;;;;10.57;8.00;;;;;;;;;;5108268;28;20202;-62
2022/01/22 14:11:56;;;;;;;12.55;8.65;;;;;;;;;;5114761;28;20267;-63
2022/01/22 14:14:23;;;;;;;10.43;8.05;;;;;;;;;;5113954;28;20593;-63
2022/01/22 14:17:08;;;;;;;11.52;7.90;;;;;;;;;;5115111;28;20195;-63
2022/01/22 14:19:36;;;;;;;9.48;7.57;;;;;;;;;;5118335;28;20215;-64
2022/01/22 14:22:03;;;;;;;10.43;7.07;;;;;;;;;;5119157;28;20225;-65
2022/01/22 14:24:33;;;;;;;9.45;7.43;;;;;;;;;;5119085;28;20468;-65
2022/01/22 14:27:00;;;;;;;10.18;6.70;;;;;;;;;;5120374;28;20210;-65
2022/01/22 14:29:28;;;;;;;8.52;6.68;;;;;;;;;;5119526;28;20198;-65
2022/01/22 14:31:59;;;;;;;18.45;12.63;;;;;;;;;;5119571;28;20203;-65
2022/01/22 14:34:33;;;;;;;17.45;13.55;;;;;;;;;;5119022;28;20199;-64
2022/01/22 14:37:00;;;;;;;19.88;17.95;;;;;;;;;;5119581;28;20203;-64
2022/01/22 14:43:57;;;;;;;18.77;16.88;;;;;;;;;;5118444;28;20313;-65
2022/01/22 14:45:21;;;;;;;16.92;14.55;;;;;;;;;;5119514;28;20190;-65
2022/01/22 14:47:53;;;;;;;16.08;13.60;;;;;;;;;;5118928;28;20195;-65
2022/01/22 14:50:21;;;;;;;14.70;13.20;;;;;;;;;;5118567;28;20244;-65
2022/01/22 14:52:49;;;;;;;13.65;12.35;;;;;;;;;;5117948;28;20203;-65
2022/01/22 14:55:17;;;;;;;14.77;12.70;;;;;;;;;;5118396;28;20199;-65
2022/01/22 14:57:45;;;;;;;13.70;11.90;;;;;;;;;;5119452;28;20517;-65
2022/01/22 15:00:15;;;;;;;13.15;11.57;;;;;;;;;;5119327;28;20249;-65
2022/01/22 15:02:43;;;;;;;13.30;11.18;;;;;;;;;;5118705;28;20199;-65
2022/01/22 15:05:13;;;;;;;10.95;9.85;;;;;;;;;;5119119;28;20207;-65
2022/01/22 15:07:41;;;;;;;11.40;10.30;;;;;;;;;;5118852;28;20806;-65
2022/01/22 15:10:09;;;;;;;10.70;9.60;;;;;;;;;;5118859;28;20207;-65
2022/01/22 15:12:37;;;;;;;10.73;9.60;;;;;;;;;;5119053;28;20227;-65
2022/01/22 15:15:07;;;;;;;12.13;9.05;;;;;;;;;;5118848;28;20210;-65
2022/01/22 15:17:53;;;;;;;9.57;8.68;;;;;;;;;;5118858;28;20199;-65
2022/01/22 15:20:22;;;;;;;9.85;8.60;;;;;;;;;;5119354;28;20222;-65
2022/01/22 15:22:50;;;;;;;28.33;25.77;;;;;;;;;;5118424;28;20199;-65
2022/01/22 15:25:17;;;;;;;27.83;25.23;;;;;;;;;;5117758;28;20207;-65
2022/01/22 15:27:45;;;;;;;23.98;21.67;;;;;;;;;;5117982;28;20209;-65
2022/01/22 15:30:20;;;;;;;22.40;20.23;;;;;;;;;;5117095;28;20207;-65
2022/01/22 15:32:55;;;;;;;21.10;19.17;;;;;;;;;;5117855;28;20202;-65
2022/01/22 15:35:22;;;;;;;20.20;18.20;;;;;;;;;;5117783;28;20206;-65
2022/01/22 15:37:51;;;;;;;19.05;17.33;;;;;;;;;;5105039;28;20455;-65
2022/01/22 15:40:20;;;;;;;18.98;17.08;;;;;;;;;;5117718;28;20223;-65
2022/01/22 15:42:47;;;;;;;17.92;16.23;;;;;;;;;;5116548;28;20558;-65
2022/01/22 15:45:16;;;;;;;17.17;15.50;;;;;;;;;;5116678;28;20491;-65
2022/01/22 15:47:43;;;;;;;15.75;14.23;;;;;;;;;;5114864;28;20476;-65
2022/01/22 15:50:11;;;;;;;15.43;13.95;;;;;;;;;;5116939;28;20198;-65
2022/01/22 15:52:39;;;;;;;15.25;13.77;;;;;;;;;;5117178;28;20203;-65
2022/01/22 15:55:08;;;;;;;13.63;12.32;;;;;;;;;;5116686;28;20195;-65
2022/01/22 15:57:36;;;;;;;14.55;13.23;;;;;;;;;;5116025;28;20227;-65
2022/01/22 16:00:06;;;;;;;13.02;11.73;;;;;;;;;;5105642;28;20598;-65
2022/01/22 16:02:36;;;;;;;12.48;11.27;;;;;;;;;;5098254;28;20240;-65
2022/01/22 16:05:04;;;;;;;12.77;11.57;;;;;;;;;;5099554;28;20307;-65
2022/01/22 16:07:33;;;;;;;19.27;17.30;;;;;;;;;;5099757;28;20206;-63
2022/01/22 16:10:03;;;;;;;25.67;23.13;;;;;;;;;;5097521;28;20706;-65
2022/01/22 16:12:31;;;;;;;22.40;20.00;;;;;;;;;;5101350;28;20252;-65